Time;durP1;ratioP1;P1;durP2;ratioP2;P2;SDS_P1;SDS_P2;PMS_P1;PMS_P2;Temp;Humidity;BMP_temperature;BMP_pressure;BME280_temperature;BME280_humidity;BME280_pressure;Samples;Min_cycle;Max_cycle;Signal;HPM_P1;HPM_P2
2021/12/19 00:04:54;;;;;;;9.45;4.53;;;6.90;99.90;;;;;;5008382;28;20100;-71
2021/12/19 00:10:05;;;;;;;11.25;4.85;;;7.00;99.90;;;;;;5022017;28;20053;-71
2021/12/19 00:12:31;;;;;;;11.80;4.88;;;7.00;99.90;;;;;;5036519;28;20061;-71
2021/12/19 00:14:57;;;;;;;8.23;4.00;;;6.90;99.90;;;;;;5018765;28;20049;-72
2021/12/19 00:17:22;;;;;;;7.85;4.45;;;7.00;99.90;;;;;;5037901;28;20053;-73
2021/12/19 00:19:48;;;;;;;8.10;4.18;;;6.90;99.90;;;;;;5050963;28;20045;-73
2021/12/19 00:22:14;;;;;;;7.80;4.30;;;6.90;99.90;;;;;;5037472;28;20041;-73
2021/12/19 00:24:39;;;;;;;8.40;3.92;;;7.00;99.90;;;;;;5035035;28;20042;-71
2021/12/19 00:27:05;;;;;;;7.20;3.65;;;7.00;99.90;;;;;;5037113;28;20049;-71
2021/12/19 00:29:31;;;;;;;9.52;4.55;;;7.00;99.90;;;;;;5053023;28;20493;-71
2021/12/19 00:31:57;;;;;;;8.75;4.85;;;6.90;99.90;;;;;;5052400;28;20041;-71
2021/12/19 00:34:23;;;;;;;8.75;4.10;;;6.90;99.90;;;;;;5054205;28;20432;-72
2021/12/19 00:36:49;;;;;;;7.75;3.53;;;7.00;99.90;;;;;;5034654;28;20051;-71
2021/12/19 00:39:15;;;;;;;6.63;3.67;;;6.90;99.90;;;;;;5036751;28;20105;-72
2021/12/19 00:41:41;;;;;;;7.78;3.83;;;6.90;99.90;;;;;;5034489;28;20061;-70
2021/12/19 00:44:09;;;;;;;7.25;3.30;;;6.90;99.90;;;;;;5038350;28;20038;-72
2021/12/19 00:46:47;;;;;;;8.50;3.88;;;7.00;99.90;;;;;;5019887;28;20081;-71
2021/12/19 00:49:13;;;;;;;7.15;3.53;;;7.00;99.90;;;;;;5034737;28;20069;-73
2021/12/19 00:51:39;;;;;;;8.50;3.00;;;7.00;99.90;;;;;;5037154;28;20097;-71
2021/12/19 00:54:09;;;;;;;6.45;2.90;;;7.00;99.90;;;;;;5034206;28;20049;-71
2021/12/19 00:56:37;;;;;;;8.15;3.60;;;7.00;99.90;;;;;;5037349;28;20046;-74
2021/12/19 00:59:03;;;;;;;6.68;3.30;;;7.00;99.90;;;;;;5068233;28;20052;-71
2021/12/19 01:01:28;;;;;;;7.72;3.42;;;7.00;99.90;;;;;;5069649;28;20072;-70
2021/12/19 01:03:54;;;;;;;9.18;3.70;;;7.00;99.90;;;;;;5037960;28;20041;-72
2021/12/19 01:06:20;;;;;;;9.68;3.70;;;7.00;99.90;;;;;;5035113;28;20053;-71
2021/12/19 01:08:47;;;;;;;9.98;4.20;;;7.00;99.90;;;;;;5070231;28;20054;-71
2021/12/19 01:11:14;;;;;;;9.10;3.92;;;7.00;99.90;;;;;;5034345;28;20572;-72
2021/12/19 01:13:40;;;;;;;7.70;3.67;;;7.00;99.90;;;;;;5053122;28;20136;-72
2021/12/19 01:16:06;;;;;;;7.95;4.05;;;7.00;99.90;;;;;;5017725;28;20092;-73
2021/12/19 01:18:32;;;;;;;11.30;5.18;;;7.00;99.90;;;;;;5052454;28;20056;-73
2021/12/19 01:20:57;;;;;;;9.07;3.95;;;7.00;99.90;;;;;;5019964;28;20132;-71
2021/12/19 01:23:23;;;;;;;11.65;4.20;;;7.00;99.90;;;;;;5037681;28;20045;-74
2021/12/19 01:25:50;;;;;;;9.98;4.50;;;7.10;99.90;;;;;;5040770;28;20042;-73
2021/12/19 01:28:16;;;;;;;11.20;4.28;;;7.00;99.90;;;;;;5038161;28;20425;-73
2021/12/19 01:30:42;;;;;;;10.02;4.43;;;7.00;99.90;;;;;;4991483;28;20049;-72
2021/12/19 01:33:08;;;;;;;9.95;4.10;;;7.10;99.90;;;;;;5037443;28;20101;-73
2021/12/19 01:35:34;;;;;;;11.57;4.65;;;7.10;99.90;;;;;;5023419;28;20099;-71
2021/12/19 01:38:00;;;;;;;8.63;4.18;;;7.10;99.90;;;;;;5022463;28;20160;-71
2021/12/19 01:40:26;;;;;;;10.05;4.95;;;7.10;99.90;;;;;;5040060;28;20041;-74
2021/12/19 01:42:54;;;;;;;11.38;4.88;;;7.10;99.90;;;;;;5023517;28;20383;-72
2021/12/19 01:45:32;;;;;;;12.63;4.97;;;7.10;99.90;;;;;;5021098;28;20029;-72
2021/12/19 01:47:59;;;;;;;9.60;4.38;;;7.10;99.90;;;;;;5039800;28;20111;-71
2021/12/19 01:50:31;;;;;;;9.95;4.57;;;7.10;99.90;;;;;;5054108;28;20049;-72
2021/12/19 01:52:57;;;;;;;11.13;4.55;;;7.10;99.90;;;;;;5039120;28;20041;-72
2021/12/19 01:55:23;;;;;;;12.70;5.57;;;7.10;99.90;;;;;;5006604;28;20041;-72
2021/12/19 01:57:50;;;;;;;8.32;4.47;;;7.10;99.90;;;;;;5054130;28;20081;-72
2021/12/19 02:00:32;;;;;;;14.05;4.38;;;7.10;99.90;;;;;;5039803;28;20064;-71
2021/12/19 02:02:58;;;;;;;7.22;3.20;;;7.10;99.90;;;;;;5020804;28;20490;-72
2021/12/19 02:05:26;;;;;;;6.85;3.17;;;7.10;99.90;;;;;;5041188;28;20053;-72
2021/12/19 02:07:53;;;;;;;4.85;2.10;;;7.20;99.90;;;;;;5054571;28;20045;-70
2021/12/19 02:10:21;;;;;;;5.35;2.75;;;7.10;99.90;;;;;;5038186;28;20124;-72
2021/12/19 02:12:49;;;;;;;5.05;2.13;;;7.10;99.90;;;;;;5055808;28;20509;-71
2021/12/19 02:15:20;;;;;;;6.45;2.45;;;7.10;99.90;;;;;;5036937;28;20422;-72
2021/12/19 02:17:48;;;;;;;5.72;2.78;;;7.10;99.90;;;;;;5039663;28;20050;-72
2021/12/19 02:20:16;;;;;;;7.72;2.60;;;7.10;99.90;;;;;;5053160;28;20472;-72
2021/12/19 02:22:42;;;;;;;8.40;3.00;;;7.10;99.90;;;;;;5039351;28;20142;-72
2021/12/19 02:25:08;;;;;;;7.18;2.75;;;7.10;99.90;;;;;;5005664;28;20049;-72
2021/12/19 02:27:34;;;;;;;3.55;1.35;;;7.00;99.90;;;;;;5021050;28;20123;-71
2021/12/19 02:30:00;;;;;;;2.92;1.67;;;7.00;99.90;;;;;;5022656;28;20053;-71
2021/12/19 02:32:28;;;;;;;2.80;1.10;;;7.00;99.90;;;;;;5036045;28;20544;-71
2021/12/19 02:34:56;;;;;;;3.33;1.50;;;7.00;99.90;;;;;;5022233;28;20037;-71
2021/12/19 02:38:08;;;;;;;2.40;1.00;;;7.00;99.90;;;;;;5004668;28;20052;-72
2021/12/19 02:48:28;;;;;;;3.58;1.23;;;6.90;99.90;;;;;;5038406;28;20045;-72
2021/12/19 02:50:54;;;;;;;3.53;1.60;;;6.90;99.90;;;;;;5037925;28;20049;-72
2021/12/19 02:53:46;;;;;;;2.83;1.17;;;6.90;99.90;;;;;;5037210;28;20051;-71
2021/12/19 02:56:13;;;;;;;3.47;1.17;;;6.90;99.90;;;;;;5037784;28;20112;-71
2021/12/19 02:58:43;;;;;;;2.42;1.10;;;6.90;99.90;;;;;;5069261;28;20046;-71
2021/12/19 03:01:12;;;;;;;2.85;1.02;;;6.90;99.90;;;;;;5072037;28;20045;-72
2021/12/19 03:03:38;;;;;;;2.90;1.20;;;6.80;99.90;;;;;;5037577;28;20071;-70
2021/12/19 03:06:05;;;;;;;2.45;0.90;;;6.90;99.90;;;;;;5020547;28;20049;-72
2021/12/19 03:08:32;;;;;;;2.10;1.00;;;6.80;99.90;;;;;;5022357;28;20049;-72
2021/12/19 03:18:52;;;;;;;1.77;0.85;;;6.80;99.90;;;;;;5036941;28;20053;-70
2021/12/19 03:21:19;;;;;;;2.20;0.90;;;6.90;99.90;;;;;;5021822;28;20083;-70
2021/12/19 03:23:45;;;;;;;3.08;1.10;;;7.30;99.90;;;;;;5035813;28;20053;-71
2021/12/19 03:26:11;;;;;;;2.08;1.10;;;6.90;99.90;;;;;;5055092;28;20120;-72
2021/12/19 03:28:37;;;;;;;2.90;1.13;;;6.80;99.90;;;;;;5018820;28;20080;-71
2021/12/19 03:31:03;;;;;;;3.40;1.08;;;6.80;99.90;;;;;;5021486;28;20060;-69
2021/12/19 03:33:31;;;;;;;3.30;1.15;;;6.80;99.90;;;;;;5036521;28;20093;-70
2021/12/19 03:35:56;;;;;;;3.85;1.35;;;6.80;99.90;;;;;;5038251;28;20622;-71
2021/12/19 03:38:23;;;;;;;2.55;1.48;;;6.90;99.90;;;;;;5021636;28;20072;-71
2021/12/19 03:41:05;;;;;;;3.20;1.23;;;6.80;99.90;;;;;;5035670;28;20049;-70
2021/12/19 03:43:31;;;;;;;3.17;1.20;;;6.90;99.90;;;;;;5037744;28;20057;-71
2021/12/19 03:45:57;;;;;;;4.00;1.25;;;6.90;99.90;;;;;;5017788;28;20551;-70
2021/12/19 03:48:22;;;;;;;5.18;1.13;;;6.90;99.90;;;;;;5037526;28;20060;-71
2021/12/19 03:50:49;;;;;;;2.70;1.27;;;6.80;99.90;;;;;;5019755;28;20045;-71
2021/12/19 03:53:17;;;;;;;2.75;1.10;;;6.80;99.90;;;;;;5052888;28;20052;-71
2021/12/19 03:55:43;;;;;;;2.42;0.95;;;6.80;99.90;;;;;;5037912;28;20046;-71
2021/12/19 03:58:11;;;;;;;3.75;1.20;;;6.80;99.90;;;;;;5035014;28;20079;-70
2021/12/19 04:00:38;;;;;;;3.45;1.13;;;6.80;99.90;;;;;;5021056;28;20061;-72
2021/12/19 04:03:08;;;;;;;2.92;1.30;;;6.80;99.90;;;;;;5035050;28;20216;-70
2021/12/19 04:05:34;;;;;;;3.03;1.10;;;6.80;99.90;;;;;;5037375;28;20103;-71
2021/12/19 04:08:00;;;;;;;2.20;1.00;;;6.80;99.90;;;;;;5053569;28;20064;-71
2021/12/19 04:10:29;;;;;;;3.25;1.38;;;6.90;99.90;;;;;;5019054;28;20045;-71
2021/12/19 04:12:55;;;;;;;2.67;1.20;;;6.80;99.90;;;;;;5037448;28;20113;-72
2021/12/19 04:15:22;;;;;;;2.72;1.10;;;6.80;99.90;;;;;;5051381;28;20429;-72
2021/12/19 04:17:48;;;;;;;3.88;1.80;;;6.80;99.90;;;;;;5021391;28;20045;-73
2021/12/19 04:20:15;;;;;;;2.42;1.15;;;6.80;99.90;;;;;;5002164;28;20049;-72
2021/12/19 04:22:42;;;;;;;2.22;1.00;;;6.70;99.90;;;;;;5070020;28;20045;-71
2021/12/19 04:25:09;;;;;;;1.60;0.70;;;6.70;99.90;;;;;;5003811;28;20533;-71
2021/12/19 04:27:36;;;;;;;1.65;0.60;;;6.70;99.90;;;;;;5035321;28;20057;-72
2021/12/19 04:30:07;;;;;;;2.13;0.70;;;6.70;99.90;;;;;;5037294;28;20045;-72
2021/12/19 04:32:38;;;;;;;1.42;0.60;;;6.60;99.90;;;;;;5017431;28;20054;-73
2021/12/19 04:35:05;;;;;;;2.63;0.60;;;6.70;99.90;;;;;;5020346;28;20065;-72
2021/12/19 05:00:48;;;;;;;1.17;0.57;;;6.50;99.90;;;;;;5041248;28;20045;-72
2021/12/19 05:14:32;;;;;;;3.67;0.70;;;6.50;99.90;;;;;;5045677;28;20069;-72
2021/12/19 05:16:48;;;;;;;2.13;0.70;;;6.40;99.90;;;;;;5038054;28;20065;-72
2021/12/19 05:19:28;;;;;;;2.20;1.20;;;6.50;99.90;;;;;;5038031;28;20045;-72
2021/12/19 05:21:58;;;;;;;2.38;0.77;;;6.40;99.90;;;;;;5057254;28;20033;-72
2021/12/19 05:27:07;;;;;;;1.83;0.70;;;6.40;99.90;;;;;;5039970;28;20568;-71
2021/12/19 05:29:33;;;;;;;2.60;1.00;;;6.50;99.90;;;;;;5073635;28;20057;-71
2021/12/19 05:32:00;;;;;;;3.67;1.30;;;6.60;99.90;;;;;;5038179;28;20410;-71
2021/12/19 05:34:27;;;;;;;5.63;1.90;;;6.40;99.90;;;;;;5040169;28;20100;-71
2021/12/19 05:45:14;;;;;;;5.63;2.15;;;6.50;99.90;;;;;;5023577;28;20109;-72
2021/12/19 05:47:45;;;;;;;6.85;2.60;;;6.50;99.90;;;;;;5040350;28;20052;-71
2021/12/19 05:50:16;;;;;;;6.18;2.38;;;6.60;99.90;;;;;;5070661;28;20049;-72
2021/12/19 05:52:42;;;;;;;9.02;2.60;;;6.50;99.90;;;;;;5040975;28;20045;-71
2021/12/19 05:55:08;;;;;;;7.43;2.70;;;6.50;99.90;;;;;;5039066;28;20056;-70
2021/12/19 05:57:34;;;;;;;7.88;2.28;;;6.60;99.90;;;;;;5037744;28;20077;-72
2021/12/19 06:00:02;;;;;;;6.28;2.22;;;6.60;99.90;;;;;;5073071;28;20079;-70
2021/12/19 06:02:29;;;;;;;9.77;3.10;;;6.60;99.90;;;;;;5070549;28;20056;-71
2021/12/19 06:04:55;;;;;;;7.75;2.63;;;6.80;99.90;;;;;;5040524;28;20037;-71
2021/12/19 06:07:21;;;;;;;8.25;2.58;;;6.60;99.90;;;;;;5036717;28;20082;-71
2021/12/19 06:09:47;;;;;;;11.27;3.67;;;6.60;99.90;;;;;;5022725;28;20045;-71
2021/12/19 06:12:12;;;;;;;9.50;2.88;;;6.60;99.90;;;;;;5005581;28;20113;-71
2021/12/19 06:14:38;;;;;;;7.38;3.33;;;6.60;99.90;;;;;;5037736;28;20401;-72
2021/12/19 06:17:04;;;;;;;8.02;3.60;;;6.60;99.90;;;;;;5022786;28;20056;-71
2021/12/19 06:19:32;;;;;;;8.98;3.55;;;6.70;99.90;;;;;;5036613;28;20076;-71
2021/12/19 06:21:58;;;;;;;9.50;3.85;;;6.60;99.90;;;;;;5055853;28;20026;-71
2021/12/19 06:24:24;;;;;;;8.80;3.60;;;6.60;99.90;;;;;;5053762;28;20140;-71
2021/12/19 06:26:49;;;;;;;7.88;3.58;;;6.70;99.90;;;;;;5040144;28;20060;-71
2021/12/19 06:29:15;;;;;;;14.27;3.78;;;6.70;99.90;;;;;;5021204;28;20057;-71
2021/12/19 06:31:41;;;;;;;12.05;3.50;;;6.70;99.90;;;;;;5037906;28;20076;-72
2021/12/19 06:34:06;;;;;;;14.98;4.68;;;6.70;99.90;;;;;;5039103;28;20123;-72
2021/12/19 06:36:32;;;;;;;14.85;4.50;;;6.70;99.90;;;;;;5020165;28;20045;-71
2021/12/19 06:38:58;;;;;;;10.45;4.07;;;6.70;99.90;;;;;;5072262;28;20045;-72
2021/12/19 06:41:24;;;;;;;11.23;4.15;;;6.70;99.90;;;;;;5020183;28;20041;-71
2021/12/19 06:43:50;;;;;;;13.10;4.53;;;6.70;99.90;;;;;;5055363;28;20087;-71
2021/12/19 06:46:16;;;;;;;11.05;4.40;;;6.70;99.90;;;;;;4988661;28;20045;-71
2021/12/19 06:48:42;;;;;;;8.43;4.03;;;6.70;99.90;;;;;;5037661;28;20056;-71
2021/12/19 06:51:07;;;;;;;11.40;4.07;;;6.70;99.90;;;;;;5038304;28;20053;-70
2021/12/19 06:53:33;;;;;;;11.27;3.92;;;6.80;99.90;;;;;;5036682;28;20052;-71
2021/12/19 06:55:59;;;;;;;11.23;4.88;;;6.80;99.90;;;;;;5038825;28;20122;-70
2021/12/19 06:58:25;;;;;;;11.85;5.15;;;6.80;99.90;;;;;;5035338;28;20037;-72
2021/12/19 07:00:51;;;;;;;16.85;5.50;;;6.80;99.90;;;;;;5022358;28;20079;-72
2021/12/19 07:03:23;;;;;;;12.93;5.07;;;6.80;99.90;;;;;;5036728;28;20045;-72
2021/12/19 07:05:49;;;;;;;13.18;4.90;;;6.80;99.90;;;;;;5037681;28;20065;-71
2021/12/19 07:08:16;;;;;;;12.25;5.18;;;6.80;99.90;;;;;;5038359;28;20041;-70
2021/12/19 07:10:41;;;;;;;12.75;5.68;;;6.80;99.90;;;;;;5035832;28;20053;-70
2021/12/19 07:13:07;;;;;;;15.65;5.03;;;6.80;99.90;;;;;;5021681;28;20636;-70
2021/12/19 07:15:33;;;;;;;13.43;5.10;;;6.80;99.90;;;;;;5002713;28;20053;-71
2021/12/19 07:18:02;;;;;;;11.02;4.32;;;6.80;99.90;;;;;;5022030;28;20054;-70
2021/12/19 07:20:29;;;;;;;11.43;4.10;;;6.80;99.90;;;;;;5037238;28;20073;-70
2021/12/19 07:22:55;;;;;;;11.90;3.90;;;6.80;99.90;;;;;;5037139;28;20057;-70
2021/12/19 07:25:21;;;;;;;9.75;3.63;;;6.80;99.90;;;;;;5021476;28;20069;-70
2021/12/19 07:27:47;;;;;;;12.98;4.45;;;6.80;99.90;;;;;;5019290;28;20041;-70
2021/12/19 07:30:13;;;;;;;11.50;4.15;;;6.80;99.90;;;;;;5038365;28;20081;-71
2021/12/19 07:32:39;;;;;;;9.13;3.85;;;6.80;99.90;;;;;;5018785;28;20056;-71
2021/12/19 07:35:08;;;;;;;12.43;3.88;;;6.80;99.90;;;;;;5021334;28;20069;-70
2021/12/19 07:37:36;;;;;;;11.48;4.50;;;6.80;99.90;;;;;;5020001;28;20464;-70
2021/12/19 07:40:15;;;;;;;13.45;4.43;;;6.80;99.90;;;;;;5053575;28;20041;-71
2021/12/19 07:42:42;;;;;;;10.95;4.15;;;6.80;99.90;;;;;;5037624;28;20612;-70
2021/12/19 07:45:10;;;;;;;9.77;3.80;;;6.80;99.90;;;;;;5052001;28;20053;-70
2021/12/19 07:47:38;;;;;;;8.75;3.60;;;6.80;99.90;;;;;;5037889;28;20049;-70
2021/12/19 07:50:04;;;;;;;9.88;3.53;;;6.80;99.90;;;;;;5035125;28;20149;-69
2021/12/19 07:52:30;;;;;;;10.32;4.60;;;6.80;99.90;;;;;;5039088;28;20045;-70
2021/12/19 07:54:55;;;;;;;10.65;3.38;;;6.80;99.90;;;;;;4987552;28;20112;-70
2021/12/19 07:57:21;;;;;;;7.53;2.88;;;6.80;99.90;;;;;;5036483;28;20041;-72
2021/12/19 07:59:47;;;;;;;7.30;2.38;;;6.80;99.90;;;;;;5037640;28;20489;-71
2021/12/19 08:02:12;;;;;;;12.68;2.80;;;6.80;99.90;;;;;;5034795;28;20050;-71
2021/12/19 08:04:38;;;;;;;9.30;2.65;;;6.80;99.90;;;;;;5054528;28;20041;-72
2021/12/19 08:07:04;;;;;;;7.95;2.80;;;6.80;99.90;;;;;;5002432;28;20092;-71
2021/12/19 08:09:56;;;;;;;10.75;3.20;;;6.80;99.90;;;;;;5053981;28;20053;-71
2021/12/19 08:12:15;;;;;;;8.15;2.60;;;6.80;99.90;;;;;;5037246;28;20061;-70
2021/12/19 08:14:41;;;;;;;8.93;2.70;;;6.80;99.90;;;;;;5034674;28;20053;-71
2021/12/19 08:17:07;;;;;;;8.70;3.65;;;6.80;99.90;;;;;;5037607;28;20045;-71
2021/12/19 08:19:32;;;;;;;11.90;3.90;;;6.80;99.90;;;;;;5035444;28;20046;-72
2021/12/19 08:21:58;;;;;;;12.65;3.25;;;6.80;99.90;;;;;;5071746;28;20045;-72
2021/12/19 08:24:24;;;;;;;13.23;4.22;;;6.80;99.90;;;;;;5036055;28;20044;-72
2021/12/19 08:26:50;;;;;;;9.30;3.47;;;6.80;99.90;;;;;;5038239;28;20046;-72
2021/12/19 08:29:16;;;;;;;11.23;3.35;;;6.70;99.90;;;;;;5054400;28;20453;-71
2021/12/19 08:31:41;;;;;;;9.15;3.13;;;6.70;99.90;;;;;;5032531;28;20141;-72
2021/12/19 08:34:07;;;;;;;9.98;3.13;;;6.70;99.90;;;;;;5011475;28;20088;-72
2021/12/19 08:36:33;;;;;;;7.70;2.90;;;6.80;99.90;;;;;;5071879;28;20079;-72
2021/12/19 08:38:59;;;;;;;10.77;3.10;;;6.80;99.90;;;;;;5057459;28;20041;-71
2021/12/19 08:41:25;;;;;;;12.70;3.90;;;6.80;99.90;;;;;;5037758;28;20191;-71
2021/12/19 08:43:51;;;;;;;14.45;3.63;;;6.80;99.90;;;;;;5023491;28;20048;-71
2021/12/19 08:46:16;;;;;;;9.75;2.67;;;6.70;99.90;;;;;;5038638;28;20033;-70
2021/12/19 08:48:42;;;;;;;10.48;3.30;;;6.80;99.90;;;;;;5039500;28;20087;-71
2021/12/19 08:51:08;;;;;;;10.18;3.47;;;6.80;99.90;;;;;;5023705;28;20060;-72
2021/12/19 08:53:35;;;;;;;9.60;2.72;;;6.90;99.90;;;;;;5020785;28;20073;-72
2021/12/19 08:56:00;;;;;;;10.13;3.20;;;6.80;99.90;;;;;;5040455;28;20060;-72
2021/12/19 08:58:28;;;;;;;11.20;3.63;;;6.80;99.90;;;;;;5038297;28;20045;-71
2021/12/19 09:01:01;;;;;;;9.50;3.45;;;6.80;99.90;;;;;;5057105;28;20068;-71
2021/12/19 09:03:29;;;;;;;9.43;2.33;;;6.80;99.90;;;;;;5039020;28;20100;-71
2021/12/19 09:05:55;;;;;;;10.07;2.67;;;6.80;99.90;;;;;;5039190;28;20076;-70
2021/12/19 09:08:20;;;;;;;6.35;2.53;;;6.90;99.90;;;;;;5090219;28;20061;-70
2021/12/19 09:10:46;;;;;;;12.65;2.88;;;6.90;99.90;;;;;;5054662;28;20165;-72
2021/12/19 09:13:12;;;;;;;11.13;2.85;;;6.90;99.90;;;;;;5041266;28;20037;-71
2021/12/19 09:15:37;;;;;;;10.55;2.78;;;6.90;99.90;;;;;;5036951;28;20514;-71
2021/12/19 09:18:03;;;;;;;13.32;3.72;;;6.90;99.90;;;;;;5057285;28;20060;-71
2021/12/19 09:20:29;;;;;;;6.72;2.33;;;6.90;99.90;;;;;;5038959;28;20065;-70
2021/12/19 09:22:55;;;;;;;11.30;2.95;;;6.90;99.90;;;;;;5039729;28;20470;-72
2021/12/19 09:25:21;;;;;;;12.48;3.08;;;7.00;99.90;;;;;;5041634;28;20050;-71
2021/12/19 09:27:47;;;;;;;6.45;2.30;;;7.00;99.90;;;;;;5036997;28;20037;-71
2021/12/19 09:30:13;;;;;;;10.60;2.85;;;6.90;99.90;;;;;;5039047;28;20053;-71
2021/12/19 09:32:40;;;;;;;9.27;3.03;;;7.00;99.90;;;;;;5070292;28;20041;-71
2021/12/19 09:35:06;;;;;;;12.25;3.35;;;7.00;99.90;;;;;;5057128;28;20049;-71
2021/12/19 09:37:35;;;;;;;7.20;3.38;;;6.90;99.90;;;;;;5039492;28;20053;-70
2021/12/19 09:40:03;;;;;;;12.65;3.30;;;7.00;99.90;;;;;;5037996;28;20563;-72
2021/12/19 09:42:34;;;;;;;9.80;3.38;;;6.90;99.90;;;;;;5038888;28;20060;-72
2021/12/19 09:45:01;;;;;;;7.90;2.47;;;7.00;99.90;;;;;;5036096;28;20124;-72
2021/12/19 09:47:27;;;;;;;9.98;3.10;;;6.90;99.90;;;;;;5040741;28;20048;-72
2021/12/19 09:49:54;;;;;;;10.20;2.85;;;6.90;99.90;;;;;;5069576;28;20113;-72
2021/12/19 09:52:20;;;;;;;11.77;3.05;;;6.90;99.90;;;;;;5055249;28;20045;-71
2021/12/19 09:54:46;;;;;;;12.48;3.13;;;7.00;99.90;;;;;;5038433;28;20045;-71
2021/12/19 09:57:12;;;;;;;6.68;2.50;;;7.00;99.90;;;;;;5039892;28;20507;-71
2021/12/19 09:59:38;;;;;;;9.55;2.70;;;7.00;99.90;;;;;;5039682;28;20049;-71
2021/12/19 10:02:04;;;;;;;8.93;3.05;;;7.00;99.90;;;;;;5070836;28;20076;-72
2021/12/19 10:04:37;;;;;;;11.43;2.58;;;7.00;99.90;;;;;;5073222;28;20049;-73
2021/12/19 10:07:10;;;;;;;7.80;2.97;;;7.00;99.90;;;;;;5036572;28;20057;-71
2021/12/19 10:09:49;;;;;;;10.57;2.63;;;7.00;99.90;;;;;;5055655;28;20053;-72
2021/12/19 10:12:37;;;;;;;9.63;2.63;;;7.00;99.90;;;;;;5038747;28;20049;-71
2021/12/19 10:15:18;;;;;;;8.85;2.55;;;7.10;99.90;;;;;;5037822;28;20068;-70
2021/12/19 10:17:44;;;;;;;8.52;2.25;;;7.10;99.90;;;;;;5056433;28;20116;-71
2021/12/19 10:20:12;;;;;;;9.23;2.58;;;7.10;99.90;;;;;;5036969;28;20046;-71
2021/12/19 10:22:43;;;;;;;9.23;2.55;;;7.10;99.90;;;;;;5039517;28;20088;-71
2021/12/19 10:25:20;;;;;;;7.55;3.10;;;7.20;99.90;;;;;;5022743;28;20049;-71
2021/12/19 10:27:53;;;;;;;6.38;2.08;;;7.10;99.90;;;;;;5068437;28;20652;-72
2021/12/19 10:30:26;;;;;;;11.90;2.90;;;7.20;99.90;;;;;;5038932;28;20057;-72
2021/12/19 10:32:55;;;;;;;6.78;2.75;;;7.10;99.90;;;;;;5069773;28;20046;-70
2021/12/19 10:35:36;;;;;;;9.07;2.20;;;7.20;99.90;;;;;;5022438;28;20109;-72
2021/12/19 10:38:04;;;;;;;5.45;1.90;;;7.20;99.90;;;;;;5039998;28;20049;-72
2021/12/19 10:40:30;;;;;;;8.07;2.10;;;7.20;99.90;;;;;;5036577;28;20056;-70
2021/12/19 10:43:01;;;;;;;6.30;2.80;;;7.20;99.90;;;;;;5071694;28;20045;-69
2021/12/19 10:45:34;;;;;;;9.35;2.50;;;7.20;99.90;;;;;;5036448;28;20051;-70
2021/12/19 10:48:20;;;;;;;7.03;2.40;;;7.20;99.90;;;;;;5040322;28;20111;-70
2021/12/19 10:51:10;;;;;;;9.65;3.10;;;7.20;99.90;;;;;;5039679;28;20056;-70
2021/12/19 10:53:36;;;;;;;6.38;1.90;;;7.20;99.90;;;;;;5018802;28;20052;-70
2021/12/19 10:56:06;;;;;;;4.68;2.10;;;7.20;99.90;;;;;;5038664;28;20077;-69
2021/12/19 10:58:36;;;;;;;8.88;2.47;;;7.20;99.90;;;;;;5069505;28;20045;-69
2021/12/19 11:01:26;;;;;;;8.40;2.15;;;7.20;99.90;;;;;;5039221;28;20067;-71
2021/12/19 11:04:06;;;;;;;5.78;2.05;;;7.30;99.90;;;;;;5071753;28;20041;-71
2021/12/19 11:06:32;;;;;;;8.32;2.30;;;7.30;99.90;;;;;;5036676;28;20056;-70
2021/12/19 11:09:00;;;;;;;7.80;2.35;;;7.30;99.90;;;;;;5039921;28;20045;-70
2021/12/19 11:11:41;;;;;;;9.38;2.00;;;7.30;99.90;;;;;;5037298;28;20045;-70
2021/12/19 11:14:26;;;;;;;6.05;1.70;;;7.40;99.90;;;;;;5038360;28;20089;-70
2021/12/19 11:17:02;;;;;;;9.95;2.28;;;7.40;99.90;;;;;;5071397;28;20054;-69
2021/12/19 11:19:30;;;;;;;11.50;2.25;;;7.40;99.90;;;;;;5036851;28;20109;-69
2021/12/19 11:21:56;;;;;;;4.95;1.95;;;7.40;99.90;;;;;;5037600;28;20121;-70
2021/12/19 11:24:24;;;;;;;12.68;2.90;;;7.40;99.90;;;;;;5052198;28;20097;-70
2021/12/19 11:26:58;;;;;;;6.70;1.90;;;7.40;99.90;;;;;;5037596;28;20049;-71
2021/12/19 11:29:25;;;;;;;8.75;2.03;;;7.40;99.90;;;;;;5054451;28;20441;-69
2021/12/19 11:31:58;;;;;;;9.00;2.10;;;7.40;99.90;;;;;;5036820;28;20049;-70
2021/12/19 11:34:52;;;;;;;6.38;1.90;;;7.40;99.90;;;;;;5038283;28;20464;-70
2021/12/19 11:37:23;;;;;;;6.88;1.75;;;7.40;99.90;;;;;;5035599;28;20049;-71
2021/12/19 11:39:52;;;;;;;6.97;2.20;;;7.40;99.90;;;;;;5053846;28;20057;-71
2021/12/19 11:42:27;;;;;;;7.05;1.95;;;7.40;99.90;;;;;;5037563;28;20041;-71
2021/12/19 11:47:53;;;;;;;7.80;1.85;;;7.50;99.90;;;;;;5039649;28;20053;-72
2021/12/19 11:50:28;;;;;;;8.43;2.38;;;7.40;99.90;;;;;;5069551;28;20053;-69
2021/12/19 11:52:57;;;;;;;8.38;1.85;;;7.40;99.90;;;;;;5037437;28;20071;-71
2021/12/19 11:55:36;;;;;;;7.32;1.83;;;7.50;99.90;;;;;;5054316;28;20053;-72
2021/12/19 11:58:08;;;;;;;7.70;1.77;;;7.50;99.90;;;;;;5034776;28;20060;-71
2021/12/19 12:00:40;;;;;;;8.10;1.60;;;7.50;99.90;;;;;;5038960;28;20041;-71
2021/12/19 12:03:11;;;;;;;10.43;2.65;;;7.50;99.90;;;;;;5051907;28;20042;-71
2021/12/19 12:05:41;;;;;;;10.43;2.08;;;7.50;99.90;;;;;;5035674;28;20049;-71
2021/12/19 12:08:07;;;;;;;8.68;2.55;;;7.50;99.90;;;;;;5054037;28;20136;-73
2021/12/19 12:10:57;;;;;;;7.72;1.77;;;7.50;99.90;;;;;;5018438;28;20049;-73
2021/12/19 12:13:24;;;;;;;8.02;1.98;;;7.50;99.90;;;;;;5031858;28;20049;-72
2021/12/19 12:15:54;;;;;;;9.35;2.28;;;7.50;99.90;;;;;;5018517;28;20104;-72
2021/12/19 12:18:38;;;;;;;9.10;2.55;;;7.50;99.90;;;;;;5036525;28;20041;-71
2021/12/19 12:21:41;;;;;;;7.30;2.08;;;7.50;99.90;;;;;;5019625;28;20481;-71
2021/12/19 12:24:16;;;;;;;8.05;2.22;;;7.50;99.90;;;;;;5029556;28;20054;-72
2021/12/19 12:26:51;;;;;;;11.38;2.80;;;7.60;99.90;;;;;;5038438;28;20397;-73
2021/12/19 12:29:17;;;;;;;8.77;1.90;;;7.50;99.90;;;;;;5036256;28;20060;-72
2021/12/19 12:31:45;;;;;;;12.48;2.33;;;7.50;99.90;;;;;;5068265;28;20666;-72
2021/12/19 12:34:14;;;;;;;11.35;2.13;;;7.50;99.90;;;;;;5037520;28;20119;-72
2021/12/19 12:36:40;;;;;;;15.40;2.45;;;7.50;99.90;;;;;;5050825;28;20053;-72
2021/12/19 12:39:15;;;;;;;7.38;1.90;;;7.50;99.90;;;;;;5036950;28;20045;-73
2021/12/19 12:44:21;;;;;;;7.88;2.42;;;7.50;99.90;;;;;;5035749;28;20528;-72
2021/12/19 12:46:49;;;;;;;9.15;2.75;;;6.90;99.90;;;;;;5070224;28;20183;-72
2021/12/19 12:49:21;;;;;;;12.55;2.55;;;7.50;99.90;;;;;;5017908;28;20060;-71
2021/12/19 12:51:56;;;;;;;7.75;2.00;;;7.50;99.90;;;;;;5037264;28;20088;-72
2021/12/19 12:54:36;;;;;;;7.82;1.65;;;7.50;99.90;;;;;;5035234;28;20099;-72
2021/12/19 12:57:11;;;;;;;9.10;2.28;;;7.50;99.90;;;;;;5036079;28;20084;-72
2021/12/19 12:59:40;;;;;;;8.53;2.57;;;7.50;99.90;;;;;;5037126;28;20060;-70
2021/12/19 13:02:20;;;;;;;8.80;2.72;;;7.50;99.90;;;;;;5043673;28;20371;-71
2021/12/19 13:04:51;;;;;;;13.70;2.58;;;7.50;99.90;;;;;;5040305;28;20037;-70
2021/12/19 13:07:22;;;;;;;12.40;2.55;;;7.50;99.90;;;;;;5033741;28;20057;-72
2021/12/19 13:09:49;;;;;;;14.75;2.47;;;7.50;99.90;;;;;;5003619;28;20079;-72
2021/12/19 13:12:24;;;;;;;13.13;2.83;;;7.50;99.90;;;;;;5033012;28;20064;-71
2021/12/19 13:14:52;;;;;;;10.30;2.10;;;7.50;99.90;;;;;;5066179;28;20435;-73
2021/12/19 13:17:44;;;;;;;8.57;3.08;;;7.50;99.90;;;;;;5019257;28;20596;-72
2021/12/19 13:20:20;;;;;;;8.38;2.92;;;7.50;99.90;;;;;;5064136;28;20053;-72
2021/12/19 13:22:47;;;;;;;9.23;2.45;;;7.50;99.90;;;;;;5038776;28;20088;-72
2021/12/19 13:25:18;;;;;;;16.13;2.50;;;7.50;99.90;;;;;;5022281;28;20199;-73
2021/12/19 13:27:49;;;;;;;8.57;2.55;;;7.50;99.90;;;;;;5037061;28;20517;-72
2021/12/19 13:30:20;;;;;;;9.20;2.15;;;7.50;99.90;;;;;;5036455;28;20045;-72
2021/12/19 13:32:50;;;;;;;6.03;2.60;;;7.50;99.90;;;;;;5052522;28;20071;-72
2021/12/19 13:35:26;;;;;;;7.32;3.05;;;7.50;99.90;;;;;;5019598;28;20097;-71
2021/12/19 13:38:03;;;;;;;14.90;2.28;;;7.50;99.90;;;;;;5038162;28;20433;-71
2021/12/19 13:40:37;;;;;;;9.90;2.75;;;7.50;99.90;;;;;;5036835;28;20136;-71
2021/12/19 13:43:06;;;;;;;13.05;2.63;;;7.50;99.90;;;;;;5020702;28;20045;-72
2021/12/19 13:45:48;;;;;;;8.88;2.10;;;7.50;99.90;;;;;;5035623;28;20041;-70
2021/12/19 13:48:27;;;;;;;12.32;2.53;;;7.50;99.90;;;;;;5039139;28;20055;-71
2021/12/19 13:50:55;;;;;;;11.27;2.80;;;7.50;99.90;;;;;;5039379;28;20038;-70
2021/12/19 13:53:21;;;;;;;7.05;2.47;;;7.50;99.90;;;;;;5036819;28;20047;-72
2021/12/19 13:55:54;;;;;;;10.07;2.65;;;7.50;99.90;;;;;;5038549;28;20087;-72
2021/12/19 13:58:33;;;;;;;9.57;3.17;;;7.50;99.90;;;;;;5050379;28;20061;-71
2021/12/19 14:01:08;;;;;;;10.07;2.80;;;7.60;99.90;;;;;;5039111;28;20049;-70
2021/12/19 14:03:42;;;;;;;12.10;2.38;;;7.60;99.90;;;;;;5055709;28;20053;-70
2021/12/19 14:06:08;;;;;;;11.68;2.28;;;7.60;99.90;;;;;;5038790;28;20057;-71
2021/12/19 14:08:35;;;;;;;9.38;3.15;;;7.60;99.90;;;;;;5039686;28;20064;-71
2021/12/19 14:11:08;;;;;;;14.77;3.75;;;7.60;99.90;;;;;;5070077;28;20057;-71
2021/12/19 14:13:36;;;;;;;15.02;2.30;;;7.60;99.90;;;;;;5055558;28;20058;-71
2021/12/19 14:16:05;;;;;;;10.77;2.17;;;7.60;99.90;;;;;;5037129;28;20041;-72